Time;durP1;ratioP1;P1;durP2;ratioP2;P2;SDS_P1;SDS_P2;PMS_P1;PMS_P2;Temp;Humidity;BMP_temperature;BMP_pressure;BME280_temperature;BME280_humidity;BME280_pressure;Samples;Min_cycle;Max_cycle;Signal;HPM_P1;HPM_P2
2023/02/21 02:14:59;;;;;;;40.25;20.83;;;4.90;99.90;;;;;;5007996;28;20083;-63
2023/02/21 02:17:44;;;;;;;33.42;21.08;;;4.90;99.90;;;;;;5007744;28;20037;-66
2023/02/21 02:20:19;;;;;;;39.05;20.50;;;5.00;99.90;;;;;;5007716;28;20033;-66
2023/02/21 02:22:56;;;;;;;39.15;22.23;;;5.00;99.90;;;;;;5010838;28;20120;-67
2023/02/21 02:25:31;;;;;;;39.65;21.45;;;4.90;99.90;;;;;;5026673;28;20124;-68
2023/02/21 02:28:21;;;;;;;38.25;20.02;;;4.90;99.90;;;;;;5027405;28;20226;-67
2023/02/21 02:31:07;;;;;;;39.28;23.08;;;4.80;99.90;;;;;;5026239;28;20529;-67
2023/02/21 02:34:16;;;;;;;40.83;20.83;;;4.70;99.90;;;;;;5027274;28;20186;-65
2023/02/21 02:36:49;;;;;;;32.58;19.33;;;4.80;99.90;;;;;;4998956;28;20037;-68
2023/02/21 02:39:31;;;;;;;34.75;20.23;;;4.80;99.90;;;;;;5027606;28;20397;-67
2023/02/21 02:42:21;;;;;;;36.78;20.85;;;4.80;99.90;;;;;;5027321;28;20029;-68
2023/02/21 02:44:55;;;;;;;34.90;19.33;;;4.70;99.90;;;;;;5027466;28;20032;-68
2023/02/21 02:47:31;;;;;;;33.95;19.38;;;4.70;99.90;;;;;;5027493;28;20472;-65
2023/02/21 02:49:59;;;;;;;33.10;19.15;;;4.60;99.90;;;;;;5027555;28;20036;-65
2023/02/21 02:52:25;;;;;;;42.55;21.65;;;4.70;99.90;;;;;;5027392;28;20037;-65
2023/02/21 02:55:02;;;;;;;43.30;22.70;;;4.60;99.90;;;;;;5026210;28;20064;-62
2023/02/21 02:57:37;;;;;;;46.85;23.08;;;4.50;99.90;;;;;;5026152;28;20033;-65
2023/02/21 03:00:04;;;;;;;37.97;20.88;;;4.50;99.90;;;;;;5026933;28;20049;-67
2023/02/21 03:02:41;;;;;;;40.70;20.98;;;4.50;99.90;;;;;;5006935;28;20040;-64
2023/02/21 03:05:15;;;;;;;37.15;22.27;;;4.50;99.90;;;;;;5010822;28;20041;-65
2023/02/21 03:07:57;;;;;;;36.95;20.17;;;4.40;99.90;;;;;;5008544;28;20026;-64
2023/02/21 03:10:43;;;;;;;42.53;21.38;;;4.50;99.90;;;;;;5006065;28;20509;-62
2023/02/21 03:13:44;;;;;;;39.92;20.60;;;4.20;99.90;;;;;;5007267;28;20498;-64
2023/02/21 03:16:27;;;;;;;37.75;20.52;;;4.30;99.90;;;;;;5028078;28;20440;-65
2023/02/21 03:18:56;;;;;;;36.80;20.35;;;4.30;99.90;;;;;;5031183;28;20025;-64
2023/02/21 03:21:26;;;;;;;37.03;20.45;;;4.40;99.90;;;;;;5030038;28;20037;-63
2023/02/21 03:23:55;;;;;;;34.97;19.35;;;4.40;99.90;;;;;;5030956;28;20036;-67
2023/02/21 03:26:21;;;;;;;32.47;18.83;;;4.30;99.90;;;;;;5030916;28;20028;-67
2023/02/21 03:28:48;;;;;;;36.17;19.63;;;4.40;99.90;;;;;;5028783;28;20044;-68
2023/02/21 03:31:18;;;;;;;37.60;20.92;;;4.40;99.90;;;;;;5028962;28;20288;-68
2023/02/21 03:33:44;;;;;;;37.40;21.30;;;4.40;99.90;;;;;;5017523;28;20030;-68
2023/02/21 03:36:10;;;;;;;40.30;21.83;;;4.30;99.90;;;;;;5010441;28;20592;-68
2023/02/21 03:38:36;;;;;;;38.03;20.88;;;4.30;99.90;;;;;;5011078;28;20280;-68
2023/02/21 03:41:01;;;;;;;37.15;20.42;;;4.30;99.90;;;;;;5010873;28;20085;-68
2023/02/21 03:43:27;;;;;;;32.97;19.20;;;4.30;99.90;;;;;;5021684;28;20143;-67
2023/02/21 03:45:53;;;;;;;33.20;19.83;;;4.40;99.90;;;;;;5028330;28;20092;-68
2023/02/21 03:48:18;;;;;;;39.00;20.40;;;4.30;99.90;;;;;;5028173;28;20044;-69
2023/02/21 03:50:44;;;;;;;36.93;19.57;;;4.30;99.90;;;;;;5028568;28;20044;-66
2023/02/21 03:53:10;;;;;;;44.40;21.42;;;4.30;99.90;;;;;;5028551;28;20401;-68
2023/02/21 03:55:36;;;;;;;40.10;20.63;;;4.20;99.90;;;;;;5029211;28;20092;-68
2023/02/21 03:58:02;;;;;;;37.97;20.30;;;4.30;99.90;;;;;;5029215;28;20022;-69
2023/02/21 04:00:28;;;;;;;44.05;21.58;;;4.20;99.90;;;;;;5029418;28;20060;-67
2023/02/21 04:02:54;;;;;;;37.58;20.98;;;4.20;99.90;;;;;;5028168;28;20049;-64
2023/02/21 04:05:19;;;;;;;36.93;21.10;;;4.20;99.90;;;;;;5028069;28;20045;-67
2023/02/21 04:07:45;;;;;;;35.90;19.70;;;4.30;99.90;;;;;;5028843;28;20540;-64
2023/02/21 04:10:11;;;;;;;38.92;19.88;;;4.30;99.90;;;;;;5028766;28;20030;-63
2023/02/21 04:12:36;;;;;;;38.13;22.05;;;4.20;99.90;;;;;;5028273;28;20811;-67
2023/02/21 04:15:02;;;;;;;35.97;20.03;;;4.10;99.90;;;;;;5028306;28;20038;-65
2023/02/21 04:17:28;;;;;;;33.40;20.42;;;4.20;99.90;;;;;;5028173;28;20112;-68
2023/02/21 04:19:53;;;;;;;38.75;20.35;;;4.20;99.90;;;;;;5028570;28;20041;-67
2023/02/21 04:22:19;;;;;;;38.00;20.33;;;4.20;99.90;;;;;;5025330;28;20080;-63
2023/02/21 04:24:46;;;;;;;37.37;20.57;;;4.20;99.90;;;;;;5028167;28;20052;-62
2023/02/21 04:27:13;;;;;;;37.65;20.05;;;4.20;99.90;;;;;;5028267;28;20030;-64
2023/02/21 04:29:38;;;;;;;38.28;21.52;;;4.10;99.90;;;;;;5028056;28;20080;-64
2023/02/21 04:32:04;;;;;;;41.07;20.40;;;4.00;99.90;;;;;;5028108;28;20065;-66
2023/02/21 04:34:30;;;;;;;34.63;19.43;;;4.00;99.90;;;;;;5028533;28;20037;-69
2023/02/21 04:36:55;;;;;;;47.17;21.35;;;4.10;99.90;;;;;;5028306;28;20296;-67
2023/02/21 04:39:21;;;;;;;36.87;20.97;;;4.10;99.90;;;;;;5028062;28;20505;-69
2023/02/21 04:41:47;;;;;;;34.57;19.57;;;4.00;99.90;;;;;;5028139;28;20039;-65
2023/02/21 04:44:12;;;;;;;36.43;19.67;;;3.90;99.90;;;;;;5028842;28;20080;-66
2023/02/21 04:46:38;;;;;;;36.63;20.77;;;3.90;99.90;;;;;;5028055;28;20061;-68
2023/02/21 04:49:03;;;;;;;41.27;23.93;;;4.00;99.90;;;;;;5027219;28;20033;-63
2023/02/21 04:51:29;;;;;;;50.90;27.63;;;3.90;99.90;;;;;;5030089;28;20563;-69
2023/02/21 04:53:55;;;;;;;42.97;21.40;;;3.80;99.90;;;;;;5026799;28;20084;-68
2023/02/21 04:56:23;;;;;;;49.97;23.67;;;3.90;99.90;;;;;;5024474;28;20299;-68
2023/02/21 04:58:49;;;;;;;43.80;24.30;;;3.90;99.90;;;;;;5031102;28;20118;-68
2023/02/21 05:01:16;;;;;;;60.38;24.20;;;3.90;99.90;;;;;;5030239;28;20033;-67
2023/02/21 05:03:41;;;;;;;40.55;22.10;;;3.80;99.90;;;;;;5028546;28;20037;-66
2023/02/21 05:06:07;;;;;;;41.70;20.40;;;3.80;99.90;;;;;;5028840;28;20140;-63
2023/02/21 05:08:34;;;;;;;49.05;20.75;;;3.70;99.90;;;;;;5030880;28;20507;-66
2023/02/21 05:11:00;;;;;;;41.42;20.08;;;3.70;99.90;;;;;;5029347;28;20060;-68
2023/02/21 05:13:26;;;;;;;42.20;20.70;;;3.70;99.90;;;;;;5028266;28;20034;-65
2023/02/21 05:15:51;;;;;;;36.50;20.67;;;3.70;99.90;;;;;;5029207;28;20401;-65
2023/02/21 05:18:22;;;;;;;50.90;22.33;;;3.60;99.90;;;;;;5028731;28;20480;-64
2023/02/21 05:20:50;;;;;;;50.33;20.65;;;3.40;99.90;;;;;;5029877;28;20021;-64
2023/02/21 05:23:17;;;;;;;37.85;19.83;;;3.40;99.90;;;;;;5029956;28;20037;-62
2023/02/21 05:25:44;;;;;;;35.33;18.85;;;3.40;99.90;;;;;;5028388;28;20497;-67
2023/02/21 05:28:09;;;;;;;40.15;19.52;;;3.40;99.90;;;;;;5027077;28;20033;-63
2023/02/21 05:30:35;;;;;;;32.03;19.13;;;3.30;99.90;;;;;;5027755;28;20520;-63
2023/02/21 05:33:00;;;;;;;33.73;19.97;;;3.40;99.90;;;;;;5027533;28;20069;-63
2023/02/21 05:35:26;;;;;;;38.10;18.43;;;3.30;99.90;;;;;;5028145;28;20505;-63
2023/02/21 05:37:52;;;;;;;34.67;17.70;;;3.50;99.90;;;;;;5026082;28;20512;-65
2023/02/21 05:40:17;;;;;;;40.43;20.27;;;3.30;99.90;;;;;;5032434;28;20033;-67
2023/02/21 05:42:43;;;;;;;34.97;18.95;;;3.30;99.90;;;;;;5026841;28;20025;-66
2023/02/21 05:45:11;;;;;;;36.60;20.77;;;3.30;99.90;;;;;;5025772;28;20759;-68
2023/02/21 05:47:37;;;;;;;33.03;18.65;;;3.20;99.90;;;;;;5025322;28;20231;-68
2023/02/21 05:50:04;;;;;;;35.40;18.83;;;3.20;99.90;;;;;;5027185;28;20612;-68
2023/02/21 05:52:29;;;;;;;44.47;20.63;;;3.20;99.90;;;;;;5031830;28;20652;-69
2023/02/21 05:54:55;;;;;;;34.92;19.05;;;3.20;99.90;;;;;;5030701;28;20048;-66
2023/02/21 05:57:21;;;;;;;42.20;18.87;;;3.20;99.90;;;;;;5026738;28;20037;-67
2023/02/21 05:59:49;;;;;;;38.03;19.02;;;3.30;99.90;;;;;;5026046;28;20041;-69
2023/02/21 06:02:15;;;;;;;31.50;17.63;;;3.20;99.90;;;;;;5028475;28;20485;-69
2023/02/21 06:04:40;;;;;;;29.23;16.77;;;3.20;99.90;;;;;;5026694;28;20032;-67
2023/02/21 06:07:06;;;;;;;32.27;18.63;;;3.20;99.90;;;;;;5022634;28;20044;-69
2023/02/21 06:09:32;;;;;;;37.10;18.38;;;3.10;99.90;;;;;;5022720;28;20029;-68
2023/02/21 06:11:58;;;;;;;38.85;18.27;;;3.20;99.90;;;;;;5026194;28;20033;-69
2023/02/21 06:14:24;;;;;;;37.17;18.23;;;3.20;99.90;;;;;;5026433;28;20033;-69
2023/02/21 06:16:50;;;;;;;36.78;18.85;;;3.20;99.90;;;;;;5026576;28;20033;-68
2023/02/21 06:19:16;;;;;;;32.72;18.30;;;3.30;99.90;;;;;;5026320;28;20364;-68
2023/02/21 06:21:42;;;;;;;34.28;18.67;;;3.20;99.90;;;;;;5034981;28;20100;-65
2023/02/21 06:24:08;;;;;;;33.05;18.35;;;3.20;99.90;;;;;;5029138;28;20026;-63
2023/02/21 06:26:36;;;;;;;38.35;19.38;;;3.20;99.90;;;;;;5025958;28;20041;-63
2023/02/21 06:29:04;;;;;;;32.00;17.50;;;3.20;99.90;;;;;;5027748;28;20581;-63
2023/02/21 06:31:30;;;;;;;35.00;18.27;;;3.20;99.90;;;;;;5030245;28;20026;-62
2023/02/21 06:33:55;;;;;;;39.38;18.10;;;3.20;99.90;;;;;;5025904;28;20045;-63
2023/02/21 06:36:24;;;;;;;32.87;16.67;;;3.20;99.90;;;;;;5033008;28;20041;-63
2023/02/21 06:38:53;;;;;;;34.53;18.83;;;3.20;99.90;;;;;;5027038;28;20025;-65
2023/02/21 06:41:24;;;;;;;34.15;17.50;;;3.20;99.90;;;;;;5026401;28;20029;-63
2023/02/21 06:43:51;;;;;;;30.27;16.38;;;3.20;99.90;;;;;;5030046;28;20033;-64
2023/02/21 06:46:20;;;;;;;38.75;18.20;;;3.20;99.90;;;;;;5025872;28;20516;-68
2023/02/21 06:48:46;;;;;;;30.25;17.33;;;3.20;99.90;;;;;;5025308;28;20044;-64
2023/02/21 06:51:13;;;;;;;37.13;17.75;;;3.20;99.90;;;;;;5026938;28;20033;-67
2023/02/21 06:53:42;;;;;;;40.28;19.30;;;3.30;99.90;;;;;;5027872;28;20040;-68
2023/02/21 06:56:08;;;;;;;47.70;21.60;;;3.40;99.90;;;;;;5024340;28;20160;-68
2023/02/21 06:58:34;;;;;;;34.27;18.87;;;3.40;99.90;;;;;;5026745;28;20108;-68
2023/02/21 07:00:59;;;;;;;41.77;19.83;;;3.50;99.90;;;;;;5025155;28;20296;-69
2023/02/21 07:03:25;;;;;;;39.53;21.67;;;3.50;99.90;;;;;;5018961;28;20033;-68
2023/02/21 07:05:51;;;;;;;36.42;20.52;;;3.60;99.90;;;;;;5019935;28;20025;-62
2023/02/21 07:08:17;;;;;;;44.65;20.75;;;3.50;99.90;;;;;;5024221;28;20045;-67
2023/02/21 07:10:42;;;;;;;42.43;20.67;;;3.50;99.90;;;;;;5024767;28;20409;-67
2023/02/21 07:13:08;;;;;;;48.00;22.47;;;3.50;99.90;;;;;;5017620;28;20028;-69
2023/02/21 07:15:33;;;;;;;41.20;20.70;;;3.60;99.90;;;;;;5023546;28;20045;-68
2023/02/21 07:17:59;;;;;;;41.13;21.63;;;3.80;99.90;;;;;;5023293;28;20363;-66
2023/02/21 07:20:25;;;;;;;45.10;21.17;;;3.80;99.90;;;;;;5022674;28;20030;-70
2023/02/21 07:22:50;;;;;;;39.77;19.30;;;4.00;99.90;;;;;;5020016;28;20034;-67
2023/02/21 07:25:19;;;;;;;45.93;19.43;;;4.20;99.90;;;;;;5021425;28;20288;-69
2023/02/21 07:27:46;;;;;;;39.25;19.05;;;4.40;99.90;;;;;;5019346;28;20280;-68
2023/02/21 07:30:13;;;;;;;37.95;18.63;;;4.50;99.90;;;;;;5020016;28;20069;-66
2023/02/21 07:32:39;;;;;;;34.33;18.25;;;4.60;99.90;;;;;;5022939;28;20040;-66
2023/02/21 07:35:05;;;;;;;52.80;18.73;;;4.60;99.90;;;;;;5027330;28;20460;-66
2023/02/21 07:37:31;;;;;;;38.00;20.00;;;4.70;99.90;;;;;;5023246;28;20037;-70
2023/02/21 07:39:56;;;;;;;49.88;18.90;;;4.80;99.90;;;;;;5027929;28;20033;-68
2023/02/21 07:42:22;;;;;;;47.93;19.83;;;5.00;99.90;;;;;;5026327;28;20033;-65
2023/02/21 07:44:47;;;;;;;41.80;18.77;;;5.60;99.90;;;;;;5021782;28;20529;-69
2023/02/21 07:47:13;;;;;;;33.03;19.40;;;6.40;99.90;;;;;;5023948;28;20028;-65
2023/02/21 07:49:40;;;;;;;34.60;17.20;;;6.60;99.90;;;;;;5024550;28;20131;-74
2023/02/21 07:52:06;;;;;;;;;;;7.40;99.90;;;;;;5024649;28;20079;-75
2023/02/21 07:54:32;;;;;;;29.88;15.88;;;8.50;99.90;;;;;;5026763;28;20563;-74
2023/02/21 07:56:57;;;;;;;37.17;16.13;;;9.00;99.90;;;;;;5025899;28;20037;-74
2023/02/21 07:59:23;;;;;;;34.33;16.37;;;9.30;99.90;;;;;;5026280;28;20535;-71
2023/02/21 08:01:49;;;;;;;29.13;15.80;;;8.50;99.90;;;;;;5030194;28;20025;-73
2023/02/21 08:04:19;;;;;;;37.92;17.33;;;7.70;99.90;;;;;;5028669;28;20029;-72
2023/02/21 08:06:46;;;;;;;30.45;16.73;;;8.00;99.90;;;;;;5026762;28;20041;-73
2023/02/21 08:09:11;;;;;;;74.80;21.67;;;9.20;99.90;;;;;;5028167;28;20067;-75
2023/02/21 08:11:39;;;;;;;68.07;20.00;;;10.20;99.70;;;;;;5028346;28;20453;-73
2023/02/21 08:14:05;;;;;;;36.67;16.13;;;11.60;98.00;;;;;;5028006;28;20044;-72
2023/02/21 08:16:30;;;;;;;53.30;18.70;;;12.10;96.50;;;;;;5025358;28;20037;-77
2023/02/21 08:18:56;;;;;;;57.67;18.27;;;12.60;94.60;;;;;;5025968;28;20025;-75
2023/02/21 08:21:21;;;;;;;81.53;20.13;;;12.60;94.10;;;;;;5025278;28;20626;-64
2023/02/21 08:23:47;;;;;;;62.17;18.40;;;13.60;92.90;;;;;;5025507;28;20025;-66
2023/02/21 08:26:13;;;;;;;53.60;18.10;;;13.70;92.60;;;;;;5026835;28;20051;-73
2023/02/21 08:28:38;;;;;;;55.13;19.50;;;14.10;91.50;;;;;;5029195;28;20442;-70
2023/02/21 08:31:05;;;;;;;81.77;21.33;;;13.60;92.20;;;;;;5025894;28;20036;-72
2023/02/21 08:33:31;;;;;;;54.85;22.50;;;13.40;92.40;;;;;;5026353;28;20059;-72
2023/02/21 08:35:56;;;;;;;59.43;20.57;;;13.40;93.40;;;;;;5025944;28;20081;-72
2023/02/21 08:38:22;;;;;;;43.83;20.57;;;12.30;95.20;;;;;;5027008;28;20038;-73
2023/02/21 08:40:47;;;;;;;58.40;19.60;;;11.10;96.90;;;;;;5027848;28;20044;-72
2023/02/21 08:43:13;;;;;;;49.47;17.83;;;10.40;99.50;;;;;;5022030;28;20030;-69
2023/02/21 08:45:38;;;;;;;29.43;17.50;;;10.10;99.90;;;;;;5026350;28;20041;-69
2023/02/21 08:48:04;;;;;;;31.20;18.30;;;10.10;99.90;;;;;;5025711;28;20128;-67
2023/02/21 08:50:30;;;;;;;43.67;17.97;;;10.60;99.90;;;;;;5030076;28;20057;-64
2023/02/21 08:52:56;;;;;;;36.40;16.70;;;11.20;99.20;;;;;;5027543;28;20034;-64
2023/02/21 08:55:22;;;;;;;59.23;18.60;;;12.10;98.10;;;;;;5028259;28;20041;-64
2023/02/21 08:57:49;;;;;;;;;;;13.30;97.10;;;;;;5027049;28;20307;-71
2023/02/21 09:00:16;;;;;;;45.55;19.15;;;13.40;96.00;;;;;;5027771;28;19909;-69
2023/02/21 09:02:42;;;;;;;38.75;17.63;;;14.20;94.20;;;;;;5026434;28;20520;-71
2023/02/21 09:05:11;;;;;;;43.77;18.57;;;14.60;93.20;;;;;;5024474;28;20037;-71
2023/02/21 09:07:37;;;;;;;48.45;17.60;;;15.50;92.20;;;;;;5020859;28;20304;-69
2023/02/21 09:10:03;;;;;;;57.38;17.45;;;16.10;90.40;;;;;;5022439;28;20032;-72
2023/02/21 09:12:29;;;;;;;45.60;16.92;;;17.30;89.40;;;;;;5028852;28;20107;-68
2023/02/21 09:14:55;;;;;;;32.27;18.20;;;17.10;85.40;;;;;;5025743;28;20424;-68
2023/02/21 09:17:20;;;;;;;36.93;17.03;;;16.10;87.10;;;;;;5021215;28;20033;-67
2023/02/21 09:19:46;;;;;;;38.83;19.30;;;15.50;88.50;;;;;;5031347;28;20163;-68
2023/02/21 09:22:12;;;;;;;33.67;16.93;;;14.80;91.90;;;;;;5026056;28;20502;-69
2023/02/21 09:24:38;;;;;;;27.55;15.73;;;14.40;92.70;;;;;;5020379;28;20315;-69
2023/02/21 09:27:04;;;;;;;39.90;17.25;;;14.10;93.40;;;;;;5026383;28;20037;-70
2023/02/21 09:29:32;;;;;;;36.42;16.85;;;13.90;94.30;;;;;;5024328;28;20429;-68
2023/02/21 09:31:59;;;;;;;32.83;14.88;;;13.80;94.70;;;;;;5030524;28;20050;-70
2023/02/21 09:34:25;;;;;;;45.97;16.73;;;13.60;94.70;;;;;;5025665;28;20032;-65
2023/02/21 09:36:50;;;;;;;26.85;14.80;;;13.70;95.80;;;;;;5025020;28;20045;-69
2023/02/21 09:39:17;;;;;;;25.93;14.27;;;13.80;96.30;;;;;;5026463;28;20511;-66
2023/02/21 09:41:43;;;;;;;33.28;15.02;;;13.80;96.20;;;;;;5021147;28;20037;-64
2023/02/21 09:44:14;;;;;;;33.35;15.25;;;13.60;96.00;;;;;;5026294;28;20085;-66
2023/02/21 09:46:49;;;;;;;30.77;15.38;;;13.70;96.30;;;;;;5027137;28;20044;-65
2023/02/21 09:49:36;;;;;;;38.08;15.38;;;14.00;97.50;;;;;;5026111;28;20485;-65
2023/02/21 09:52:02;;;;;;;27.33;15.65;;;13.90;97.20;;;;;;5026069;28;20025;-65
2023/02/21 09:54:39;;;;;;;30.35;16.45;;;14.00;96.50;;;;;;5026305;28;20037;-67
2023/02/21 09:57:11;;;;;;;29.58;15.40;;;13.90;96.50;;;;;;5019806;28;20095;-70
2023/02/21 09:59:37;;;;;;;32.72;16.05;;;14.00;97.40;;;;;;5017761;28;20083;-70
2023/02/21 10:02:15;;;;;;;29.60;15.53;;;13.70;97.00;;;;;;5024093;28;20041;-70
2023/02/21 10:04:59;;;;;;;24.45;14.45;;;13.80;98.00;;;;;;5020598;28;20114;-69
2023/02/21 10:07:43;;;;;;;265.23;32.42;;;14.00;97.80;;;;;;5025901;28;20037;-69
2023/02/21 10:10:25;;;;;;;33.92;16.90;;;14.10;97.30;;;;;;5024463;28;20029;-70
2023/02/21 10:13:02;;;;;;;28.73;16.95;;;14.10;97.10;;;;;;5021062;28;20025;-70
2023/02/21 10:15:43;;;;;;;28.55;16.80;;;14.00;97.60;;;;;;5015406;28;20038;-67
2023/02/21 10:18:24;;;;;;;28.25;15.23;;;14.00;97.60;;;;;;5021121;28;20030;-65
2023/02/21 10:20:58;;;;;;;31.83;15.52;;;13.90;97.90;;;;;;5024753;28;20445;-68
2023/02/21 10:23:28;;;;;;;32.40;16.17;;;13.90;98.50;;;;;;5018530;28;20144;-68
2023/02/21 10:25:58;;;;;;;31.05;16.48;;;14.10;98.30;;;;;;5022649;28;20025;-69
2023/02/21 10:28:25;;;;;;;27.05;15.90;;;14.10;98.00;;;;;;5022901;28;20038;-69
2023/02/21 10:30:56;;;;;;;25.98;15.88;;;14.10;97.50;;;;;;5022420;28;20124;-69
2023/02/21 10:33:21;;;;;;;28.60;15.68;;;14.30;97.60;;;;;;5025477;28;20064;-71
2023/02/21 10:35:47;;;;;;;27.23;16.37;;;14.50;97.30;;;;;;5025214;28;20076;-68
2023/02/21 10:38:16;;;;;;;30.30;14.83;;;14.50;96.80;;;;;;5025155;28;20541;-69
2023/02/21 10:40:47;;;;;;;23.77;14.63;;;14.60;97.60;;;;;;5024217;28;20091;-72
2023/02/21 10:43:16;;;;;;;22.08;15.13;;;14.60;96.90;;;;;;5025475;28;20029;-69
2023/02/21 10:46:00;;;;;;;25.08;14.77;;;14.50;97.40;;;;;;5024844;28;20512;-69
2023/02/21 10:48:31;;;;;;;25.80;14.55;;;14.40;97.50;;;;;;5019470;28;20033;-69
2023/02/21 10:50:57;;;;;;;26.30;15.27;;;14.20;97.40;;;;;;5025126;28;20033;-70
2023/02/21 10:53:34;;;;;;;29.77;14.57;;;14.30;97.30;;;;;;5018650;28;20040;-66
2023/02/21 10:56:18;;;;;;;;;;;14.50;97.20;;;;;;5020197;28;20099;-70
2023/02/21 10:59:06;;;;;;;24.70;14.68;;;14.50;97.20;;;;;;5021785;28;19920;-68
2023/02/21 11:01:42;;;;;;;23.52;14.88;;;14.40;97.50;;;;;;5020187;28;20021;-68
2023/02/21 11:04:15;;;;;;;32.00;15.30;;;14.80;97.10;;;;;;5020629;28;20056;-67
2023/02/21 11:06:48;;;;;;;26.35;16.27;;;14.60;97.40;;;;;;5022397;28;20030;-68
2023/02/21 11:09:26;;;;;;;29.45;15.63;;;14.40;97.80;;;;;;5023126;28;20022;-67
2023/02/21 11:12:02;;;;;;;23.50;15.50;;;14.10;98.00;;;;;;5023476;28;20029;-68
2023/02/21 11:14:28;;;;;;;26.17;15.13;;;13.90;98.30;;;;;;5023710;28;20806;-68
2023/02/21 11:17:14;;;;;;;;;;;14.10;98.10;;;;;;5024963;28;20107;-68
2023/02/21 11:20:06;;;;;;;23.30;14.23;;;14.10;98.20;;;;;;5022503;28;19912;-66
2023/02/21 11:22:41;;;;;;;26.67;15.25;;;14.10;98.70;;;;;;5022804;28;20525;-67
2023/02/21 11:25:21;;;;;;;21.05;14.27;;;14.10;98.40;;;;;;5022984;28;20129;-68
2023/02/21 11:28:08;;;;;;;25.52;15.25;;;14.10;98.10;;;;;;5022858;28;20047;-67
2023/02/21 11:30:37;;;;;;;27.08;15.90;;;14.00;98.50;;;;;;5021625;28;20594;-64
2023/02/21 11:33:04;;;;;;;26.15;14.88;;;14.00;98.00;;;;;;5022756;28;20644;-68
2023/02/21 11:35:38;;;;;;;24.77;14.93;;;14.00;98.30;;;;;;5024373;28;20045;-65
2023/02/21 11:38:28;;;;;;;23.95;14.95;;;14.00;98.30;;;;;;5023164;28;20501;-69
2023/02/21 11:40:54;;;;;;;25.90;14.65;;;14.00;99.20;;;;;;5024759;28;20048;-67
2023/02/21 11:43:19;;;;;;;27.90;14.87;;;14.00;98.90;;;;;;5017295;28;20057;-67
2023/02/21 11:46:01;;;;;;;26.63;15.33;;;13.90;98.90;;;;;;5028171;28;20030;-68
2023/02/21 11:48:31;;;;;;;28.90;15.73;;;13.90;99.00;;;;;;5028766;28;20520;-68
2023/02/21 11:51:04;;;;;;;28.63;14.68;;;14.00;99.10;;;;;;5029018;28;20391;-68
2023/02/21 11:53:36;;;;;;;21.90;13.35;;;14.00;99.50;;;;;;5027690;28;20128;-69
2023/02/21 11:56:14;;;;;;;25.83;14.93;;;14.00;99.80;;;;;;5028237;28;20098;-68
2023/02/21 11:58:59;;;;;;;22.25;13.98;;;14.10;99.70;;;;;;5028351;28;20126;-69
2023/02/21 12:01:50;;;;;;;20.60;12.77;;;14.10;99.90;;;;;;5028924;28;20095;-67
2023/02/21 12:04:28;;;;;;;21.13;13.27;;;14.10;99.90;;;;;;5023693;28;20049;-68
2023/02/21 12:07:13;;;;;;;20.50;13.48;;;14.10;99.90;;;;;;5028577;28;20061;-68
2023/02/21 12:09:55;;;;;;;19.45;12.88;;;14.30;99.90;;;;;;5028476;28;20749;-68
2023/02/21 12:12:23;;;;;;;25.63;12.52;;;14.30;99.90;;;;;;5028346;28;20056;-70
2023/02/21 12:15:23;;;;;;;20.77;12.60;;;14.30;99.90;;;;;;5028019;28;20037;-68
2023/02/21 12:18:27;;;;;;;18.98;12.75;;;14.30;99.90;;;;;;5023134;28;20034;-68
2023/02/21 12:21:04;;;;;;;19.88;13.43;;;14.40;99.70;;;;;;5027926;28;20083;-68
2023/02/21 12:23:41;;;;;;;23.13;14.85;;;14.30;99.90;;;;;;5028816;28;20057;-68
2023/02/21 12:26:06;;;;;;;;;;;14.30;98.90;;;;;;5028949;28;20511;-68
2023/02/21 12:28:54;;;;;;;21.27;13.18;;;14.40;99.80;;;;;;5028269;28;20004;-69
2023/02/21 12:31:58;;;;;;;21.05;13.35;;;14.50;99.10;;;;;;5027746;28;20037;-69
2023/02/21 12:34:59;;;;;;;22.45;13.13;;;14.60;99.90;;;;;;5027273;28;20557;-67
2023/02/21 12:38:03;;;;;;;20.02;13.43;;;14.60;99.90;;;;;;5025392;28;20556;-68
2023/02/21 12:40:37;;;;;;;23.85;13.20;;;14.70;99.90;;;;;;5027739;28;20538;-68
2023/02/21 12:43:16;;;;;;;19.88;13.20;;;14.80;99.00;;;;;;5027548;28;20033;-69
2023/02/21 12:46:11;;;;;;;26.42;14.43;;;14.90;99.10;;;;;;5027268;28;20100;-70
2023/02/21 12:48:45;;;;;;;21.88;13.25;;;15.00;99.60;;;;;;5027751;28;20124;-66
2023/02/21 12:51:16;;;;;;;28.70;13.73;;;15.10;98.10;;;;;;5027500;28;20067;-69
2023/02/21 12:53:48;;;;;;;19.10;13.02;;;15.10;98.40;;;;;;5019237;28;20029;-67
2023/02/21 12:56:48;;;;;;;25.27;12.52;;;15.30;99.10;;;;;;5027718;28;20437;-69
2023/02/21 12:59:32;;;;;;;22.20;13.50;;;15.20;98.90;;;;;;5027305;28;20112;-70
2023/02/21 13:02:07;;;;;;;17.63;12.80;;;15.10;98.70;;;;;;5025343;28;20029;-68
2023/02/21 13:04:43;;;;;;;21.08;12.85;;;15.10;98.20;;;;;;5027313;28;20040;-69
2023/02/21 13:07:40;;;;;;;22.83;12.90;;;15.20;98.30;;;;;;5023515;28;20140;-68
2023/02/21 13:10:23;;;;;;;18.50;12.52;;;15.10;98.30;;;;;;5026103;28;20091;-69
2023/02/21 13:12:51;;;;;;;22.30;12.35;;;15.20;98.40;;;;;;5027165;28;20037;-69
2023/02/21 13:15:21;;;;;;;22.10;12.55;;;15.30;98.30;;;;;;5028044;28;20370;-68
2023/02/21 13:18:01;;;;;;;26.52;12.40;;;15.50;98.00;;;;;;5027209;28;20490;-69
2023/02/21 13:20:34;;;;;;;18.33;11.38;;;15.50;97.20;;;;;;5026947;28;20061;-68
2023/02/21 13:26:19;;;;;;;17.05;11.55;;;15.60;98.60;;;;;;5027032;28;20078;-69
2023/02/21 13:28:50;;;;;;;16.77;10.50;;;15.70;97.30;;;;;;5026932;28;20033;-69
2023/02/21 13:31:22;;;;;;;25.65;11.95;;;15.70;97.40;;;;;;5026781;28;20041;-69
2023/02/21 13:33:51;;;;;;;22.92;12.32;;;15.80;97.60;;;;;;5026326;28;20030;-69
2023/02/21 13:36:42;;;;;;;21.00;12.52;;;15.70;97.80;;;;;;5026397;28;20509;-68
2023/02/21 13:39:08;;;;;;;21.70;13.60;;;15.60;97.80;;;;;;5023744;28;20033;-68
2023/02/21 13:41:55;;;;;;;17.97;12.47;;;15.50;97.70;;;;;;5024974;28;20446;-69
2023/02/21 13:44:45;;;;;;;18.65;12.50;;;15.50;97.60;;;;;;5024571;28;20044;-67
2023/02/21 13:47:15;;;;;;;20.23;12.20;;;15.40;97.70;;;;;;5018602;28;20211;-68
2023/02/21 13:49:47;;;;;;;18.90;11.43;;;15.30;97.60;;;;;;5025598;28;20033;-69
2023/02/21 13:52:31;;;;;;;16.90;11.43;;;15.20;97.60;;;;;;5025967;28;20057;-68
2023/02/21 13:55:14;;;;;;;24.75;11.63;;;15.20;97.30;;;;;;5022286;28;20049;-67
2023/02/21 13:57:44;;;;;;;18.80;11.73;;;15.20;97.30;;;;;;5025293;28;20079;-69
2023/02/21 14:00:30;;;;;;;24.48;12.63;;;15.40;97.10;;;;;;5026256;28;20029;-69
2023/02/21 14:03:01;;;;;;;18.95;11.82;;;15.40;97.50;;;;;;5014112;28;20045;-67
2023/02/21 14:05:51;;;;;;;17.35;11.85;;;15.40;97.80;;;;;;5025925;28;20592;-69
2023/02/21 14:08:28;;;;;;;18.25;11.93;;;15.50;97.60;;;;;;5025993;28;20045;-68
2023/02/21 14:11:06;;;;;;;24.33;13.85;;;15.60;97.10;;;;;;5025915;28;20079;-69
2023/02/21 14:13:37;;;;;;;19.65;12.30;;;15.60;97.10;;;;;;5018927;28;20033;-65
2023/02/21 14:16:12;;;;;;;21.50;12.30;;;15.60;97.00;;;;;;5025941;28;20029;-69
2023/02/21 14:18:37;;;;;;;20.15;11.80;;;15.50;97.00;;;;;;5026003;28;20053;-69
2023/02/21 14:21:08;;;;;;;24.73;12.37;;;15.40;97.20;;;;;;5024479;28;20112;-70
2023/02/21 14:23:47;;;;;;;22.02;11.43;;;15.30;97.10;;;;;;5026338;28;20032;-69
2023/02/21 14:26:34;;;;;;;21.77;12.48;;;15.30;97.40;;;;;;5026571;28;20029;-70
2023/02/21 14:29:14;;;;;;;22.85;12.45;;;15.30;97.30;;;;;;5025675;28;20033;-69
2023/02/21 14:32:00;;;;;;;20.05;11.45;;;15.40;96.90;;;;;;5026106;28;20044;-69
2023/02/21 14:34:32;;;;;;;17.63;10.63;;;15.20;97.30;;;;;;5025930;28;20052;-68
2023/02/21 14:37:03;;;;;;;19.15;11.00;;;15.30;96.90;;;;;;5025373;28;20033;-68
2023/02/21 14:39:37;;;;;;;17.83;10.65;;;15.20;97.00;;;;;;5025744;28;20151;-69
2023/02/21 14:42:31;;;;;;;18.95;11.02;;;15.20;97.00;;;;;;5016951;28;20139;-67
2023/02/21 14:45:09;;;;;;;21.05;12.63;;;15.20;97.00;;;;;;5019028;28;20595;-69
2023/02/21 14:47:56;;;;;;;20.98;11.90;;;15.10;97.30;;;;;;5025279;28;20029;-69
2023/02/21 14:50:35;;;;;;;22.13;12.63;;;15.10;97.20;;;;;;5025518;28;20465;-66
2023/02/21 14:53:27;;;;;;;24.70;12.15;;;15.00;97.70;;;;;;5025405;28;20112;-69
2023/02/21 14:56:04;;;;;;;19.55;11.80;;;15.00;97.70;;;;;;5025349;28;20091;-67
2023/02/21 14:58:58;;;;;;;17.05;10.55;;;14.80;97.90;;;;;;5025628;28;20112;-69
2023/02/21 15:02:01;;;;;;;15.82;10.88;;;14.80;98.10;;;;;;5025606;28;20033;-67
2023/02/21 15:04:27;;;;;;;18.08;11.50;;;14.90;98.00;;;;;;5024785;28;20464;-69
2023/02/21 15:07:17;;;;;;;20.23;13.03;;;14.90;97.80;;;;;;5025395;28;20033;-68
2023/02/21 15:09:44;;;;;;;23.92;13.68;;;14.90;97.60;;;;;;5022230;28;20068;-70
2023/02/21 15:12:14;;;;;;;;;;;14.80;97.60;;;;;;5026245;28;20133;-68
2023/02/21 15:14:50;;;;;;;23.73;14.35;;;14.80;98.00;;;;;;5019484;28;19917;-68